sensor_id;sensor_type;location;lat;lon;timestamp;pressure;altitude;pressure_sealevel;temperature;humidity
49072;BME280;74284;52.610;10.236;2024-01-15T00:00:23;99173.31;;;1.41;94.12
49072;BME280;74284;52.610;10.236;2024-01-15T00:02:49;99173.41;;;1.38;94.12
49072;BME280;74284;52.610;10.236;2024-01-15T00:05:14;99178.34;;;1.74;93.31
49072;BME280;74284;52.610;10.236;2024-01-15T00:07:39;99164.88;;;2.11;90.29
49072;BME280;74284;52.610;10.236;2024-01-15T00:10:05;99153.13;;;1.73;92.17
49072;BME280;74284;52.610;10.236;2024-01-15T00:12:31;99155.38;;;1.83;91.43
49072;BME280;74284;52.610;10.236;2024-01-15T00:14:56;99148.63;;;1.76;91.46
49072;BME280;74284;52.610;10.236;2024-01-15T00:17:21;99143.13;;;1.59;91.73
49072;BME280;74284;52.610;10.236;2024-01-15T00:19:47;99142.53;;;1.49;93.48
49072;BME280;74284;52.610;10.236;2024-01-15T00:22:12;99146.91;;;1.49;93.85
49072;BME280;74284;52.610;10.236;2024-01-15T00:24:37;99134.25;;;1.63;93.11
49072;BME280;74284;52.610;10.236;2024-01-15T00:27:03;99137.59;;;1.67;92.21
49072;BME280;74284;52.610;10.236;2024-01-15T00:29:29;99125.69;;;1.84;91.18
49072;BME280;74284;52.610;10.236;2024-01-15T00:31:54;99124.41;;;1.96;90.01
49072;BME280;74284;52.610;10.236;2024-01-15T00:34:19;99120.50;;;1.83;90.72
49072;BME280;74284;52.610;10.236;2024-01-15T00:36:45;99115.06;;;1.64;90.95
49072;BME280;74284;52.610;10.236;2024-01-15T00:39:10;99105.84;;;1.79;90.32
49072;BME280;74284;52.610;10.236;2024-01-15T00:41:36;99098.59;;;1.87;89.52
49072;BME280;74284;52.610;10.236;2024-01-15T00:44:01;99088.38;;;1.79;89.57
49072;BME280;74284;52.610;10.236;2024-01-15T00:46:28;99101.06;;;1.90;89.07
49072;BME280;74284;52.610;10.236;2024-01-15T00:48:53;99099.34;;;1.91;88.89
49072;BME280;74284;52.610;10.236;2024-01-15T00:51:18;99103.81;;;1.87;88.16
49072;BME280;74284;52.610;10.236;2024-01-15T00:53:44;99097.94;;;1.80;89.01
49072;BME280;74284;52.610;10.236;2024-01-15T00:56:09;99113.47;;;1.85;88.52
49072;BME280;74284;52.610;10.236;2024-01-15T00:58:34;99100.06;;;1.69;89.80
49072;BME280;74284;52.610;10.236;2024-01-15T01:01:00;99092.78;;;1.52;90.14
49072;BME280;74284;52.610;10.236;2024-01-15T01:03:25;99076.34;;;1.22;92.62
49072;BME280;74284;52.610;10.236;2024-01-15T01:05:50;99102.03;;;1.63;90.70
49072;BME280;74284;52.610;10.236;2024-01-15T01:08:16;99085.00;;;1.76;89.38
49072;BME280;74284;52.610;10.236;2024-01-15T01:10:41;99079.25;;;1.66;88.73
49072;BME280;74284;52.610;10.236;2024-01-15T01:13:09;99083.69;;;1.89;87.41
49072;BME280;74284;52.610;10.236;2024-01-15T01:15:35;99080.72;;;2.00;87.17
49072;BME280;74284;52.610;10.236;2024-01-15T01:18:00;99078.97;;;1.99;86.43
49072;BME280;74284;52.610;10.236;2024-01-15T01:20:25;99081.88;;;1.91;86.87
49072;BME280;74284;52.610;10.236;2024-01-15T01:22:51;99083.31;;;2.00;86.25
49072;BME280;74284;52.610;10.236;2024-01-15T01:25:16;99069.00;;;1.85;87.42
49072;BME280;74284;52.610;10.236;2024-01-15T01:27:41;99066.28;;;1.88;86.85
49072;BME280;74284;52.610;10.236;2024-01-15T01:30:07;99057.00;;;2.04;85.47
49072;BME280;74284;52.610;10.236;2024-01-15T01:32:32;99052.63;;;1.80;87.34
49072;BME280;74284;52.610;10.236;2024-01-15T01:34:58;99066.03;;;1.71;86.86
49072;BME280;74284;52.610;10.236;2024-01-15T01:37:23;99040.56;;;1.76;86.87
49072;BME280;74284;52.610;10.236;2024-01-15T01:39:48;99048.25;;;1.80;86.58
49072;BME280;74284;52.610;10.236;2024-01-15T01:42:15;99048.31;;;1.79;86.00
49072;BME280;74284;52.610;10.236;2024-01-15T01:44:40;99046.97;;;1.67;86.74
49072;BME280;74284;52.610;10.236;2024-01-15T01:47:06;99056.56;;;1.67;86.95
49072;BME280;74284;52.610;10.236;2024-01-15T01:49:32;99059.56;;;1.81;86.14
49072;BME280;74284;52.610;10.236;2024-01-15T01:51:59;99056.84;;;1.84;85.94
49072;BME280;74284;52.610;10.236;2024-01-15T01:54:27;99043.09;;;1.79;86.10
49072;BME280;74284;52.610;10.236;2024-01-15T01:56:53;99040.03;;;1.66;86.17
49072;BME280;74284;52.610;10.236;2024-01-15T01:59:18;99049.03;;;1.57;86.59
49072;BME280;74284;52.610;10.236;2024-01-15T02:01:44;99042.81;;;1.87;85.26
49072;BME280;74284;52.610;10.236;2024-01-15T02:04:11;99044.63;;;1.84;85.44
49072;BME280;74284;52.610;10.236;2024-01-15T02:06:36;99046.38;;;1.84;85.73
49072;BME280;74284;52.610;10.236;2024-01-15T02:09:01;99045.28;;;1.91;85.09
49072;BME280;74284;52.610;10.236;2024-01-15T02:11:27;99039.34;;;1.86;84.87
49072;BME280;74284;52.610;10.236;2024-01-15T02:13:53;99028.56;;;1.95;84.55
49072;BME280;74284;52.610;10.236;2024-01-15T02:16:18;99027.13;;;1.87;84.61
49072;BME280;74284;52.610;10.236;2024-01-15T02:18:45;99004.88;;;1.75;85.08
49072;BME280;74284;52.610;10.236;2024-01-15T02:21:10;99015.91;;;1.83;83.99
49072;BME280;74284;52.610;10.236;2024-01-15T02:23:37;99002.44;;;1.94;84.30
49072;BME280;74284;52.610;10.236;2024-01-15T02:26:02;99012.56;;;2.03;83.56
49072;BME280;74284;52.610;10.236;2024-01-15T02:28:29;99003.88;;;1.79;84.99
49072;BME280;74284;52.610;10.236;2024-01-15T02:30:54;99004.53;;;1.84;84.68
49072;BME280;74284;52.610;10.236;2024-01-15T02:33:19;98999.09;;;1.90;84.64
49072;BME280;74284;52.610;10.236;2024-01-15T02:35:45;98998.31;;;1.63;85.24
49072;BME280;74284;52.610;10.236;2024-01-15T02:38:15;98990.44;;;1.88;84.12
49072;BME280;74284;52.610;10.236;2024-01-15T02:40:41;98997.50;;;1.86;84.49
49072;BME280;74284;52.610;10.236;2024-01-15T02:43:06;98980.41;;;1.77;84.84
49072;BME280;74284;52.610;10.236;2024-01-15T02:45:32;98976.94;;;1.77;84.40
49072;BME280;74284;52.610;10.236;2024-01-15T02:47:57;98986.56;;;1.75;85.26
49072;BME280;74284;52.610;10.236;2024-01-15T02:50:22;98987.16;;;1.83;85.09
49072;BME280;74284;52.610;10.236;2024-01-15T02:52:48;98998.31;;;1.63;86.27
49072;BME280;74284;52.610;10.236;2024-01-15T02:55:13;99002.09;;;1.79;85.46
49072;BME280;74284;52.610;10.236;2024-01-15T02:57:39;98997.13;;;1.72;86.28
49072;BME280;74284;52.610;10.236;2024-01-15T03:00:04;99007.13;;;1.61;87.02
49072;BME280;74284;52.610;10.236;2024-01-15T03:02:30;99002.59;;;1.66;87.24
49072;BME280;74284;52.610;10.236;2024-01-15T03:04:58;99006.47;;;1.79;86.54
49072;BME280;74284;52.610;10.236;2024-01-15T03:07:23;99018.75;;;1.77;86.30
49072;BME280;74284;52.610;10.236;2024-01-15T03:09:49;99013.38;;;1.81;86.19
49072;BME280;74284;52.610;10.236;2024-01-15T03:12:15;99021.25;;;1.80;86.44
49072;BME280;74284;52.610;10.236;2024-01-15T03:14:40;99009.16;;;1.77;86.75
49072;BME280;74284;52.610;10.236;2024-01-15T03:17:06;99011.19;;;1.69;87.86
49072;BME280;74284;52.610;10.236;2024-01-15T03:19:34;99015.25;;;1.78;86.83
49072;BME280;74284;52.610;10.236;2024-01-15T03:22:00;99012.72;;;1.75;87.00
49072;BME280;74284;52.610;10.236;2024-01-15T03:24:26;99013.19;;;1.86;86.75
49072;BME280;74284;52.610;10.236;2024-01-15T03:26:51;99017.38;;;1.90;86.00
49072;BME280;74284;52.610;10.236;2024-01-15T03:29:16;99018.28;;;1.91;85.98
49072;BME280;74284;52.610;10.236;2024-01-15T03:31:42;99033.03;;;1.92;86.51
49072;BME280;74284;52.610;10.236;2024-01-15T03:34:07;99022.41;;;1.96;86.13
49072;BME280;74284;52.610;10.236;2024-01-15T03:36:32;99011.97;;;1.96;86.02
49072;BME280;74284;52.610;10.236;2024-01-15T03:38:58;98993.50;;;1.76;86.82
49072;BME280;74284;52.610;10.236;2024-01-15T03:41:23;99005.22;;;1.89;86.88
49072;BME280;74284;52.610;10.236;2024-01-15T03:43:48;98991.06;;;1.71;87.31
49072;BME280;74284;52.610;10.236;2024-01-15T03:46:14;99006.81;;;1.93;86.34
49072;BME280;74284;52.610;10.236;2024-01-15T03:48:39;99009.88;;;1.81;87.46
49072;BME280;74284;52.610;10.236;2024-01-15T03:51:05;98987.66;;;1.69;87.93
49072;BME280;74284;52.610;10.236;2024-01-15T03:53:30;98999.47;;;1.79;87.35
49072;BME280;74284;52.610;10.236;2024-01-15T03:55:56;98999.72;;;1.73;87.14
49072;BME280;74284;52.610;10.236;2024-01-15T03:58:21;98991.22;;;1.67;87.07
49072;BME280;74284;52.610;10.236;2024-01-15T04:00:46;98999.22;;;1.87;86.70
49072;BME280;74284;52.610;10.236;2024-01-15T04:03:12;98996.13;;;1.76;86.35
49072;BME280;74284;52.610;10.236;2024-01-15T04:05:38;99005.97;;;1.69;87.52
49072;BME280;74284;52.610;10.236;2024-01-15T04:08:03;98996.97;;;1.76;86.68
49072;BME280;74284;52.610;10.236;2024-01-15T04:10:29;99001.50;;;1.71;87.07
49072;BME280;74284;52.610;10.236;2024-01-15T04:12:54;98994.31;;;1.78;86.74
49072;BME280;74284;52.610;10.236;2024-01-15T04:15:19;99010.34;;;1.69;88.09
49072;BME280;74284;52.610;10.236;2024-01-15T04:17:45;99011.78;;;1.77;87.27
49072;BME280;74284;52.610;10.236;2024-01-15T04:20:10;99019.94;;;1.68;87.72
49072;BME280;74284;52.610;10.236;2024-01-15T04:22:36;99010.03;;;1.76;87.20
49072;BME280;74284;52.610;10.236;2024-01-15T04:25:02;99001.31;;;1.77;87.01
49072;BME280;74284;52.610;10.236;2024-01-15T04:27:27;99013.38;;;1.81;86.96
49072;BME280;74284;52.610;10.236;2024-01-15T04:29:53;99007.50;;;1.75;87.35
49072;BME280;74284;52.610;10.236;2024-01-15T04:32:19;98998.97;;;1.70;87.53
49072;BME280;74284;52.610;10.236;2024-01-15T04:34:44;99003.91;;;1.52;88.51
49072;BME280;74284;52.610;10.236;2024-01-15T04:37:09;99005.47;;;1.83;87.08
49072;BME280;74284;52.610;10.236;2024-01-15T04:39:35;99004.44;;;1.87;86.59
49072;BME280;74284;52.610;10.236;2024-01-15T04:42:00;98994.94;;;1.84;86.81
49072;BME280;74284;52.610;10.236;2024-01-15T04:44:25;98999.25;;;1.86;86.76
49072;BME280;74284;52.610;10.236;2024-01-15T04:46:51;99005.22;;;1.89;86.51
49072;BME280;74284;52.610;10.236;2024-01-15T04:49:16;99009.28;;;1.98;85.48
49072;BME280;74284;52.610;10.236;2024-01-15T04:51:41;99010.28;;;1.94;85.91
49072;BME280;74284;52.610;10.236;2024-01-15T04:54:07;99007.25;;;1.81;87.18
49072;BME280;74284;52.610;10.236;2024-01-15T04:56:32;98998.97;;;1.70;87.25
49072;BME280;74284;52.610;10.236;2024-01-15T04:58:57;99006.56;;;1.76;87.29
49072;BME280;74284;52.610;10.236;2024-01-15T05:01:23;98998.56;;;1.80;86.99
49072;BME280;74284;52.610;10.236;2024-01-15T05:03:48;99003.22;;;1.72;87.78
49072;BME280;74284;52.610;10.236;2024-01-15T05:06:14;99014.22;;;1.82;86.69
49072;BME280;74284;52.610;10.236;2024-01-15T05:08:40;99024.56;;;1.85;86.62
49072;BME280;74284;52.610;10.236;2024-01-15T05:11:05;99034.16;;;1.84;86.81
49072;BME280;74284;52.610;10.236;2024-01-15T05:13:30;99041.97;;;1.86;86.55
49072;BME280;74284;52.610;10.236;2024-01-15T05:15:55;99025.78;;;1.75;87.14
49072;BME280;74284;52.610;10.236;2024-01-15T05:18:21;99007.72;;;1.69;87.47
49072;BME280;74284;52.610;10.236;2024-01-15T05:20:46;99005.47;;;1.83;86.89
49072;BME280;74284;52.610;10.236;2024-01-15T05:23:11;99010.94;;;1.75;86.83
49072;BME280;74284;52.610;10.236;2024-01-15T05:25:37;99021.25;;;1.80;86.76
49072;BME280;74284;52.610;10.236;2024-01-15T05:28:02;99009.50;;;1.67;87.85
49072;BME280;74284;52.610;10.236;2024-01-15T05:30:28;99011.13;;;1.71;87.95
49072;BME280;74284;52.610;10.236;2024-01-15T05:32:53;98998.88;;;1.73;87.42
49072;BME280;74284;52.610;10.236;2024-01-15T05:35:18;99000.75;;;1.68;88.07
49072;BME280;74284;52.610;10.236;2024-01-15T05:37:45;98994.69;;;1.42;89.80
49072;BME280;74284;52.610;10.236;2024-01-15T05:40:12;98999.34;;;1.59;87.88
49072;BME280;74284;52.610;10.236;2024-01-15T05:42:38;99008.06;;;1.83;87.52
49072;BME280;74284;52.610;10.236;2024-01-15T05:45:04;99012.09;;;1.68;88.43
49072;BME280;74284;52.610;10.236;2024-01-15T05:47:30;99006.31;;;1.83;87.19
49072;BME280;74284;52.610;10.236;2024-01-15T05:49:56;99011.06;;;1.72;88.16
49072;BME280;74284;52.610;10.236;2024-01-15T05:52:21;99004.41;;;1.64;88.78
49072;BME280;74284;52.610;10.236;2024-01-15T05:54:47;99012.78;;;1.73;88.37
49072;BME280;74284;52.610;10.236;2024-01-15T05:57:13;99004.38;;;1.89;87.13
49072;BME280;74284;52.610;10.236;2024-01-15T05:59:38;98997.38;;;1.89;87.36
49072;BME280;74284;52.610;10.236;2024-01-15T06:02:04;99004.09;;;1.96;86.70
49072;BME280;74284;52.610;10.236;2024-01-15T06:04:29;99003.53;;;1.88;86.94
49072;BME280;74284;52.610;10.236;2024-01-15T06:06:54;99000.69;;;1.94;86.33
49072;BME280;74284;52.610;10.236;2024-01-15T06:09:20;99003.19;;;1.74;88.05
49072;BME280;74284;52.610;10.236;2024-01-15T06:11:45;99004.66;;;1.81;87.75
49072;BME280;74284;52.610;10.236;2024-01-15T06:14:10;98999.16;;;1.89;86.85
49072;BME280;74284;52.610;10.236;2024-01-15T06:16:36;98990.34;;;1.91;86.23
49072;BME280;74284;52.610;10.236;2024-01-15T06:19:01;98993.06;;;1.88;86.99
49072;BME280;74284;52.610;10.236;2024-01-15T06:21:26;98989.28;;;1.97;86.65
49072;BME280;74284;52.610;10.236;2024-01-15T06:23:51;98994.56;;;1.95;86.31
49072;BME280;74284;52.610;10.236;2024-01-15T06:26:17;99009.84;;;1.82;87.64
49072;BME280;74284;52.610;10.236;2024-01-15T06:28:42;99010.69;;;1.83;87.37
49072;BME280;74284;52.610;10.236;2024-01-15T06:31:08;99015.09;;;1.81;87.37
49072;BME280;74284;52.610;10.236;2024-01-15T06:33:33;99023.88;;;1.80;87.52
49072;BME280;74284;52.610;10.236;2024-01-15T06:35:58;99015.09;;;1.81;87.87
49072;BME280;74284;52.610;10.236;2024-01-15T06:38:24;99025.22;;;1.90;86.98
49072;BME280;74284;52.610;10.236;2024-01-15T06:40:50;99023.00;;;2.04;86.93
49072;BME280;74284;52.610;10.236;2024-01-15T06:43:17;99017.72;;;1.81;87.12
49072;BME280;74284;52.610;10.236;2024-01-15T06:45:42;99021.59;;;1.94;86.72
49072;BME280;74284;52.610;10.236;2024-01-15T06:48:08;99021.31;;;1.78;87.66
49072;BME280;74284;52.610;10.236;2024-01-15T06:50:34;99025.53;;;1.82;87.76
49072;BME280;74284;52.610;10.236;2024-01-15T06:52:59;99013.88;;;1.91;87.10
49072;BME280;74284;52.610;10.236;2024-01-15T06:55:24;99015.06;;;1.82;87.05
49072;BME280;74284;52.610;10.236;2024-01-15T06:57:51;99017.91;;;1.51;88.56
49072;BME280;74284;52.610;10.236;2024-01-15T07:00:16;99018.47;;;1.84;88.00
49072;BME280;74284;52.610;10.236;2024-01-15T07:02:41;99017.16;;;1.73;89.42
49072;BME280;74284;52.610;10.236;2024-01-15T07:05:07;99015.75;;;1.88;87.83
49072;BME280;74284;52.610;10.236;2024-01-15T07:07:32;99018.13;;;1.94;87.44
49072;BME280;74284;52.610;10.236;2024-01-15T07:09:58;99022.50;;;1.93;88.08
49072;BME280;74284;52.610;10.236;2024-01-15T07:12:23;99025.44;;;2.09;87.21
49072;BME280;74284;52.610;10.236;2024-01-15T07:14:49;99034.19;;;2.08;86.59
49072;BME280;74284;52.610;10.236;2024-01-15T07:17:14;99028.59;;;1.94;87.55
49072;BME280;74284;52.610;10.236;2024-01-15T07:19:40;99041.22;;;1.82;88.59
49072;BME280;74284;52.610;10.236;2024-01-15T07:22:05;99042.31;;;2.00;87.03
49072;BME280;74284;52.610;10.236;2024-01-15T07:24:30;99039.03;;;1.95;87.66
49072;BME280;74284;52.610;10.236;2024-01-15T07:26:55;99036.44;;;1.94;87.61
49072;BME280;74284;52.610;10.236;2024-01-15T07:29:21;99044.28;;;1.94;87.38
49072;BME280;74284;52.610;10.236;2024-01-15T07:31:50;99044.69;;;1.83;87.51
49072;BME280;74284;52.610;10.236;2024-01-15T07:34:15;99039.34;;;1.86;88.14
49072;BME280;74284;52.610;10.236;2024-01-15T07:36:42;99045.59;;;1.82;88.88
49072;BME280;74284;52.610;10.236;2024-01-15T07:39:07;99046.72;;;1.75;89.25
49072;BME280;74284;52.610;10.236;2024-01-15T07:41:32;99046.81;;;1.72;88.27
49072;BME280;74284;52.610;10.236;2024-01-15T07:43:57;99051.38;;;1.90;87.98
49072;BME280;74284;52.610;10.236;2024-01-15T07:46:23;99041.84;;;1.89;87.68
49072;BME280;74284;52.610;10.236;2024-01-15T07:48:50;99056.50;;;1.93;87.88
49072;BME280;74284;52.610;10.236;2024-01-15T07:51:21;99053.47;;;1.80;88.40
49072;BME280;74284;52.610;10.236;2024-01-15T07:53:46;99052.47;;;1.84;89.00
49072;BME280;74284;52.610;10.236;2024-01-15T07:56:12;99045.09;;;1.96;88.04
49072;BME280;74284;52.610;10.236;2024-01-15T07:58:37;99053.25;;;1.62;89.84
49072;BME280;74284;52.610;10.236;2024-01-15T08:01:02;99062.72;;;1.66;89.78
49072;BME280;74284;52.610;10.236;2024-01-15T08:03:28;99052.81;;;1.99;88.37
49072;BME280;74284;52.610;10.236;2024-01-15T08:05:53;99052.81;;;1.99;88.13
49072;BME280;74284;52.610;10.236;2024-01-15T08:08:19;99055.28;;;2.03;88.19
49072;BME280;74284;52.610;10.236;2024-01-15T08:10:46;99059.88;;;1.97;88.42
49072;BME280;74284;52.610;10.236;2024-01-15T08:13:12;99055.00;;;2.11;87.75
49072;BME280;74284;52.610;10.236;2024-01-15T08:15:37;99055.91;;;2.10;87.04
49072;BME280;74284;52.610;10.236;2024-01-15T08:18:02;99065.19;;;2.19;86.99
49072;BME280;74284;52.610;10.236;2024-01-15T08:20:28;99069.63;;;2.17;86.45
49072;BME280;74284;52.610;10.236;2024-01-15T08:22:53;99059.13;;;2.18;86.87
49072;BME280;74284;52.610;10.236;2024-01-15T08:25:19;99055.25;;;2.28;86.24
49072;BME280;74284;52.610;10.236;2024-01-15T08:27:44;99056.59;;;2.15;86.76
49072;BME280;74284;52.610;10.236;2024-01-15T08:30:10;99066.66;;;2.26;86.82
49072;BME280;74284;52.610;10.236;2024-01-15T08:32:36;99060.13;;;2.14;87.16
49072;BME280;74284;52.610;10.236;2024-01-15T08:35:06;99065.72;;;2.03;88.06
49072;BME280;74284;52.610;10.236;2024-01-15T08:37:31;99070.44;;;1.94;87.95
49072;BME280;74284;52.610;10.236;2024-01-15T08:39:57;99055.09;;;2.08;87.63
49072;BME280;74284;52.610;10.236;2024-01-15T08:42:22;99071.97;;;1.99;87.48
49072;BME280;74284;52.610;10.236;2024-01-15T08:44:47;99072.72;;;2.03;86.86
49072;BME280;74284;52.610;10.236;2024-01-15T08:47:12;99076.63;;;2.16;86.08
49072;BME280;74284;52.610;10.236;2024-01-15T08:49:38;99069.91;;;1.84;87.84
49072;BME280;74284;52.610;10.236;2024-01-15T08:52:04;99074.19;;;1.87;88.18
49072;BME280;74284;52.610;10.236;2024-01-15T08:54:30;99071.78;;;1.80;87.81
49072;BME280;74284;52.610;10.236;2024-01-15T08:56:55;99071.13;;;1.99;86.35
49072;BME280;74284;52.610;10.236;2024-01-15T08:59:20;99073.75;;;1.74;88.44
49072;BME280;74284;52.610;10.236;2024-01-15T09:01:50;99077.38;;;1.95;86.83
49072;BME280;74284;52.610;10.236;2024-01-15T09:04:15;99072.53;;;1.84;87.56
49072;BME280;74284;52.610;10.236;2024-01-15T09:06:45;99069.81;;;1.87;86.75
49072;BME280;74284;52.610;10.236;2024-01-15T09:09:10;99077.59;;;1.89;86.77
49072;BME280;74284;52.610;10.236;2024-01-15T09:11:36;99072.22;;;1.93;86.36
49072;BME280;74284;52.610;10.236;2024-01-15T09:14:01;99085.06;;;1.99;86.32
49072;BME280;74284;52.610;10.236;2024-01-15T09:16:27;99092.88;;;2.01;86.07
49072;BME280;74284;52.610;10.236;2024-01-15T09:18:52;99086.13;;;1.94;87.75
49072;BME280;74284;52.610;10.236;2024-01-15T09:21:17;99090.69;;;1.89;87.62
49072;BME280;74284;52.610;10.236;2024-01-15T09:23:43;99085.19;;;1.96;86.95
49072;BME280;74284;52.610;10.236;2024-01-15T09:26:08;99095.31;;;2.05;86.81
49072;BME280;74284;52.610;10.236;2024-01-15T09:28:34;99090.44;;;1.95;87.18
49072;BME280;74284;52.610;10.236;2024-01-15T09:30:59;99100.50;;;1.82;87.52
49072;BME280;74284;52.610;10.236;2024-01-15T09:33:25;99096.91;;;1.84;87.55
49072;BME280;74284;52.610;10.236;2024-01-15T09:35:50;99107.66;;;1.77;88.03
49072;BME280;74284;52.610;10.236;2024-01-15T09:38:15;99106.28;;;1.92;87.12
49072;BME280;74284;52.610;10.236;2024-01-15T09:40:43;99106.53;;;1.59;88.61
49072;BME280;74284;52.610;10.236;2024-01-15T09:43:11;99101.53;;;1.78;88.19
49072;BME280;74284;52.610;10.236;2024-01-15T09:45:37;99097.19;;;1.77;88.76
49072;BME280;74284;52.610;10.236;2024-01-15T09:48:03;99105.97;;;1.99;86.96
49072;BME280;74284;52.610;10.236;2024-01-15T09:50:29;99108.06;;;1.90;87.56
49072;BME280;74284;52.610;10.236;2024-01-15T09:52:54;99105.63;;;1.85;88.05
49072;BME280;74284;52.610;10.236;2024-01-15T09:55:22;99106.13;;;1.96;87.68
49072;BME280;74284;52.610;10.236;2024-01-15T09:57:49;99103.69;;;1.90;87.88
49072;BME280;74284;52.610;10.236;2024-01-15T10:00:18;99105.97;;;1.99;87.85
49072;BME280;74284;52.610;10.236;2024-01-15T10:02:43;99103.94;;;2.09;88.03
49072;BME280;74284;52.610;10.236;2024-01-15T10:05:09;99110.81;;;1.87;88.75
49072;BME280;74284;52.610;10.236;2024-01-15T10:07:36;99106.47;;;2.11;87.36
49072;BME280;74284;52.610;10.236;2024-01-15T10:10:02;99101.88;;;2.17;87.01
49072;BME280;74284;52.610;10.236;2024-01-15T10:12:28;99106.91;;;2.23;86.67
49072;BME280;74284;52.610;10.236;2024-01-15T10:14:55;99112.72;;;2.31;86.91
49072;BME280;74284;52.610;10.236;2024-01-15T10:17:21;99106.84;;;2.25;86.41
49072;BME280;74284;52.610;10.236;2024-01-15T10:19:46;99104.03;;;2.29;86.68
49072;BME280;74284;52.610;10.236;2024-01-15T10:22:14;99112.16;;;2.22;87.17
49072;BME280;74284;52.610;10.236;2024-01-15T10:24:40;99112.59;;;2.34;86.69
49072;BME280;74284;52.610;10.236;2024-01-15T10:27:06;99109.34;;;2.28;86.02
49072;BME280;74284;52.610;10.236;2024-01-15T10:29:32;99110.88;;;2.33;86.05
49072;BME280;74284;52.610;10.236;2024-01-15T10:31:58;99109.63;;;2.20;86.77
49072;BME280;74284;52.610;10.236;2024-01-15T10:34:25;99098.47;;;2.39;86.36
49072;BME280;74284;52.610;10.236;2024-01-15T10:36:50;99105.22;;;2.21;86.28
49072;BME280;74284;52.610;10.236;2024-01-15T10:39:23;99103.88;;;2.34;85.78
49072;BME280;74284;52.610;10.236;2024-01-15T10:41:49;99112.75;;;2.30;85.79
49072;BME280;74284;52.610;10.236;2024-01-15T10:44:14;99102.78;;;2.40;85.93
49072;BME280;74284;52.610;10.236;2024-01-15T10:46:40;99094.31;;;2.33;85.34
49072;BME280;74284;52.610;10.236;2024-01-15T10:49:06;99099.72;;;2.52;85.30
49072;BME280;74284;52.610;10.236;2024-01-15T10:51:32;99098.53;;;2.37;86.04
49072;BME280;74284;52.610;10.236;2024-01-15T10:53:59;99102.88;;;2.38;85.60
49072;BME280;74284;52.610;10.236;2024-01-15T10:56:25;99093.53;;;2.54;84.94
49072;BME280;74284;52.610;10.236;2024-01-15T10:58:51;99094.84;;;2.43;84.93
49072;BME280;74284;52.610;10.236;2024-01-15T11:01:17;99088.34;;;2.29;85.09
49072;BME280;74284;52.610;10.236;2024-01-15T11:03:45;99092.81;;;2.51;85.16
49072;BME280;74284;52.610;10.236;2024-01-15T11:06:17;99092.41;;;2.38;84.36
49072;BME280;74284;52.610;10.236;2024-01-15T11:08:49;99083.00;;;2.32;84.21
49072;BME280;74284;52.610;10.236;2024-01-15T11:11:16;99091.81;;;2.53;84.92
49072;BME280;74284;52.610;10.236;2024-01-15T11:13:42;99092.50;;;2.58;84.72
49072;BME280;74284;52.610;10.236;2024-01-15T11:16:14;99096.25;;;2.75;83.38
49072;BME280;74284;52.610;10.236;2024-01-15T11:19:01;99090.78;;;2.57;84.42
49072;BME280;74284;52.610;10.236;2024-01-15T11:21:27;99095.75;;;2.42;84.93
49072;BME280;74284;52.610;10.236;2024-01-15T11:23:59;99102.28;;;2.53;84.05
49072;BME280;74284;52.610;10.236;2024-01-15T11:31:58;99086.41;;;2.81;82.59
49072;BME280;74284;52.610;10.236;2024-01-15T11:34:51;99087.75;;;2.46;83.42
49072;BME280;74284;52.610;10.236;2024-01-15T11:37:18;99102.28;;;2.77;82.63
49072;BME280;74284;52.610;10.236;2024-01-15T11:39:44;99091.56;;;2.83;82.40
49072;BME280;74284;52.610;10.236;2024-01-15T11:42:11;99086.94;;;2.90;82.78
49072;BME280;74284;52.610;10.236;2024-01-15T11:44:40;99090.06;;;2.99;82.38
49072;BME280;74284;52.610;10.236;2024-01-15T11:47:06;99087.63;;;2.95;82.27
49072;BME280;74284;52.610;10.236;2024-01-15T11:52:22;99087.53;;;2.98;82.10
49072;BME280;74284;52.610;10.236;2024-01-15T11:55:26;99088.53;;;2.95;81.72
49072;BME280;74284;52.610;10.236;2024-01-15T11:57:54;99081.22;;;2.80;82.09
49072;BME280;74284;52.610;10.236;2024-01-15T12:00:20;99091.75;;;2.78;82.05
49072;BME280;74284;52.610;10.236;2024-01-15T12:02:48;99078.03;;;2.95;81.55
49072;BME280;74284;52.610;10.236;2024-01-15T12:05:17;99094.78;;;2.90;82.00
49072;BME280;74284;52.610;10.236;2024-01-15T12:07:48;99093.25;;;3.07;81.40
49072;BME280;74284;52.610;10.236;2024-01-15T12:10:19;99089.91;;;3.04;80.74
49072;BME280;74284;52.610;10.236;2024-01-15T12:13:10;99088.66;;;2.91;80.61
49072;BME280;74284;52.610;10.236;2024-01-15T12:15:37;99082.53;;;2.90;81.41
49072;BME280;74284;52.610;10.236;2024-01-15T12:18:03;99079.22;;;3.08;80.46
49072;BME280;74284;52.610;10.236;2024-01-15T12:20:30;99081.19;;;3.03;79.60
49072;BME280;74284;52.610;10.236;2024-01-15T12:22:56;99085.03;;;3.17;79.53
49072;BME280;74284;52.610;10.236;2024-01-15T12:25:23;99076.69;;;3.29;79.20
49072;BME280;74284;52.610;10.236;2024-01-15T12:27:48;99074.25;;;3.02;79.40
49072;BME280;74284;52.610;10.236;2024-01-15T12:30:14;99077.16;;;3.17;78.57
49072;BME280;74284;52.610;10.236;2024-01-15T12:32:43;99084.63;;;3.05;78.68
49072;BME280;74284;52.610;10.236;2024-01-15T12:35:10;99080.81;;;3.13;78.48
49072;BME280;74284;52.610;10.236;2024-01-15T12:37:37;99083.03;;;3.01;79.16
49072;BME280;74284;52.610;10.236;2024-01-15T12:40:03;99083.16;;;3.20;78.58
49072;BME280;74284;52.610;10.236;2024-01-15T12:42:32;99083.25;;;3.17;77.58
49072;BME280;74284;52.610;10.236;2024-01-15T12:44:57;99086.44;;;3.03;78.93
49072;BME280;74284;52.610;10.236;2024-01-15T12:47:23;99091.63;;;3.05;78.95
49072;BME280;74284;52.610;10.236;2024-01-15T12:49:48;99089.78;;;3.07;79.19
49072;BME280;74284;52.610;10.236;2024-01-15T12:52:15;99083.63;;;3.08;79.43
49072;BME280;74284;52.610;10.236;2024-01-15T12:54:41;99088.28;;;3.01;79.91
49072;BME280;74284;52.610;10.236;2024-01-15T12:57:06;99082.41;;;3.17;79.58
49072;BME280;74284;52.610;10.236;2024-01-15T12:59:31;99093.50;;;3.01;80.44
49072;BME280;74284;52.610;10.236;2024-01-15T13:01:57;99093.44;;;2.79;80.83